createdAt,value
2023-05-19T00:12:24.444Z,4.30
2023-05-19T00:25:24.456Z,4.60
2023-05-19T00:38:24.470Z,4.60
2023-05-19T00:51:24.484Z,5.65
2023-05-19T01:04:24.535Z,4.80
2023-05-19T01:17:24.563Z,5.50
2023-05-19T01:30:24.547Z,3.80
2023-05-19T01:43:24.589Z,3.50
2023-05-19T01:56:24.610Z,4.70
2023-05-19T02:09:24.606Z,3.85
2023-05-19T02:22:24.689Z,3.30
2023-05-19T02:35:24.684Z,3.80
2023-05-19T02:48:24.643Z,3.80
2023-05-19T03:01:24.724Z,4.00
2023-05-19T03:14:24.745Z,3.00
2023-05-19T03:27:24.830Z,3.70
2023-05-19T03:40:24.873Z,2.80
2023-05-19T03:53:24.896Z,2.80
2023-05-19T04:06:24.917Z,3.30
2023-05-19T04:19:25.012Z,2.60
2023-05-19T04:32:24.983Z,3.20
2023-05-19T04:45:24.978Z,3.50
2023-05-19T04:58:25.015Z,3.00
2023-05-19T05:11:25.000Z,2.70
2023-05-19T05:24:25.007Z,2.60
2023-05-19T05:37:24.996Z,7.60
2023-05-19T05:50:25.205Z,6.05
2023-05-19T06:03:25.077Z,5.30
2023-05-19T06:16:25.072Z,7.30
2023-05-19T06:29:25.045Z,7.90
2023-05-19T06:42:25.123Z,8.20
2023-05-19T06:55:25.173Z,8.80
2023-05-19T07:08:25.166Z,8.40
2023-05-19T07:21:25.197Z,8.40
2023-05-19T07:34:25.181Z,7.10
2023-05-19T07:47:25.239Z,8.40
2023-05-19T08:00:25.209Z,8.00
2023-05-19T08:13:25.327Z,7.50
2023-05-19T08:26:25.295Z,7.35
2023-05-19T08:39:25.291Z,6.80
2023-05-19T08:52:25.342Z,7.10
2023-05-19T09:05:25.413Z,6.30
2023-05-19T09:18:25.388Z,5.60
2023-05-19T09:31:25.421Z,6.00
2023-05-19T09:44:25.398Z,6.60
2023-05-19T09:57:25.436Z,5.20
2023-05-19T10:10:25.475Z,5.60
2023-05-19T10:23:25.561Z,6.30
2023-05-19T10:36:25.529Z,6.00
2023-05-19T10:49:25.572Z,6.50
2023-05-19T11:02:25.607Z,7.90
2023-05-19T11:15:25.605Z,8.40
2023-05-19T11:28:25.592Z,7.90
2023-05-19T11:41:25.773Z,12.40
2023-05-19T11:54:25.614Z,33.20
2023-05-19T12:07:25.623Z,30.30
2023-05-19T12:20:25.633Z,30.10
2023-05-19T12:33:25.827Z,28.85
2023-05-19T12:46:25.739Z,24.10
2023-05-19T12:59:37.152Z,26.80
2023-05-19T13:12:25.756Z,19.80
2023-05-19T13:25:25.792Z,17.70
2023-05-19T13:38:25.783Z,14.00
2023-05-19T13:51:26.092Z,13.80
2023-05-19T14:04:25.821Z,12.10
2023-05-19T14:17:25.914Z,10.30
2023-05-19T14:30:25.798Z,9.20
2023-05-19T14:43:25.828Z,7.20
2023-05-19T14:56:25.975Z,6.80
2023-05-19T15:09:25.830Z,7.50
2023-05-19T15:22:25.877Z,6.20
2023-05-19T15:35:25.919Z,5.50
2023-05-19T15:48:25.924Z,9.10
2023-05-19T16:01:25.984Z,6.55
2023-05-19T16:14:27.573Z,5.70
2023-05-19T16:27:26.148Z,4.60
2023-05-19T16:40:26.301Z,6.10
2023-05-19T16:53:26.103Z,3.70
2023-05-19T17:06:26.010Z,4.00
2023-05-19T17:19:26.118Z,3.45
2023-05-19T17:32:26.211Z,3.00
2023-05-19T17:45:26.194Z,3.90
2023-05-19T17:58:26.211Z,4.90
2023-05-19T18:11:26.213Z,5.50
2023-05-19T18:24:26.633Z,4.70
2023-05-19T18:37:26.641Z,3.25
2023-05-19T18:50:26.951Z,5.00
2023-05-19T19:03:26.416Z,3.00
2023-05-19T19:16:26.511Z,4.00
2023-05-19T19:29:26.553Z,2.10
2023-05-19T19:42:26.641Z,1.90
2023-05-19T19:55:26.662Z,2.00
2023-05-19T20:08:26.960Z,2.20
2023-05-19T20:21:26.741Z,2.70
2023-05-19T20:34:26.786Z,2.00
2023-05-19T20:47:28.259Z,3.00
2023-05-19T21:00:27.895Z,3.20
2023-05-19T21:13:26.958Z,2.30
2023-05-19T21:26:27.043Z,2.50
2023-05-19T21:39:27.054Z,1.90
2023-05-19T21:52:27.207Z,1.90
2023-05-19T22:05:27.076Z,2.40
2023-05-19T22:18:27.054Z,2.10
2023-05-19T22:31:27.161Z,1.90
2023-05-19T22:44:27.169Z,1.90
2023-05-19T22:57:27.160Z,2.60
2023-05-19T23:10:27.179Z,2.30
2023-05-19T23:23:27.671Z,2.20
2023-05-19T23:36:27.240Z,1.95
2023-05-19T23:49:27.286Z,2.60
